Time;durP1;ratioP1;P1;durP2;ratioP2;P2;SDS_P1;SDS_P2;PMS_P1;PMS_P2;Temp;Humidity;BMP_temperature;BMP_pressure;BME280_temperature;BME280_humidity;BME280_pressure;Samples;Min_cycle;Max_cycle;Signal;HPM_P1;HPM_P2
2023/12/10 00:01:14;;;;;;;2.17;1.55;;;;;;;13.76;64.21;96189.16;5080701;28;20355;-27
2023/12/10 00:03:40;;;;;;;3.47;1.55;;;;;;;13.80;64.88;96172.66;5073102;28;20044;-26
2023/12/10 00:06:06;;;;;;;3.05;1.83;;;;;;;13.75;65.22;96163.13;5080324;28;20461;-27
2023/12/10 00:08:31;;;;;;;5.47;2.03;;;;;;;13.91;64.83;96164.78;5080876;28;20016;-27
2023/12/10 00:10:57;;;;;;;3.47;1.27;;;;;;;13.75;65.32;96165.06;5080269;28;20032;-27
2023/12/10 00:13:22;;;;;;;3.70;1.63;;;;;;;13.82;65.10;96165.56;5080544;28;20466;-27
2023/12/10 00:15:48;;;;;;;3.45;1.70;;;;;;;13.81;65.56;96163.28;5082848;28;20027;-27
2023/12/10 00:18:13;;;;;;;3.15;1.70;;;;;;;13.79;65.43;96177.34;5084855;28;20043;-27
2023/12/10 00:20:39;;;;;;;5.13;1.65;;;;;;;13.72;65.00;96150.41;5090193;28;20020;-27
2023/12/10 00:23:07;;;;;;;2.55;1.60;;;;;;;13.81;65.03;96142.22;5086430;28;20024;-27
2023/12/10 00:25:32;;;;;;;4.00;1.80;;;;;;;13.68;65.40;96111.66;5084976;28;20017;-27
2023/12/10 00:27:58;;;;;;;4.93;1.85;;;;;;;13.73;65.03;96102.09;5084123;28;20082;-26
2023/12/10 00:30:23;;;;;;;3.13;2.30;;;;;;;13.69;66.00;96085.16;5086030;28;20023;-27
2023/12/10 00:32:49;;;;;;;2.70;1.90;;;;;;;13.78;65.14;96077.72;5087471;28;20066;-27
2023/12/10 00:35:14;;;;;;;3.58;2.35;;;;;;;13.74;65.58;96082.56;5078990;28;20457;-27
2023/12/10 00:37:40;;;;;;;2.85;2.35;;;;;;;13.73;65.71;96089.22;5084324;28;20036;-27
2023/12/10 00:40:06;;;;;;;3.35;1.98;;;;;;;13.68;66.19;96075.47;5090692;28;20020;-27
2023/12/10 00:42:32;;;;;;;2.50;1.90;;;;;;;13.75;65.73;96080.59;5085274;28;20043;-27
2023/12/10 00:44:58;;;;;;;3.38;2.10;;;;;;;13.62;66.18;96080.75;5088845;28;20051;-27
2023/12/10 00:47:23;;;;;;;4.57;2.40;;;;;;;13.73;66.03;96075.59;5086669;28;20016;-27
2023/12/10 00:49:48;;;;;;;3.63;2.22;;;;;;;13.83;65.54;96071.66;5084202;28;20052;-28
2023/12/10 00:52:14;;;;;;;2.45;1.92;;;;;;;13.83;66.21;96079.09;5082752;28;20074;-27
2023/12/10 00:54:40;;;;;;;3.78;2.30;;;;;;;13.63;66.51;96091.19;5086196;28;20025;-27
2023/12/10 00:57:05;;;;;;;4.13;3.17;;;;;;;13.62;66.45;96089.69;5086723;28;20012;-27
2023/12/10 00:59:31;;;;;;;3.67;2.50;;;;;;;13.67;66.21;96080.16;5086695;28;20047;-27
2023/12/10 01:01:57;;;;;;;2.78;2.30;;;;;;;13.68;66.07;96070.78;5085743;28;20070;-27
2023/12/10 01:04:23;;;;;;;3.35;2.28;;;;;;;13.59;66.94;96070.78;5081053;28;20027;-27
2023/12/10 01:06:49;;;;;;;4.07;2.28;;;;;;;13.70;66.32;96059.41;5083560;28;20024;-27
2023/12/10 01:09:15;;;;;;;3.28;2.20;;;;;;;13.67;66.36;96077.44;5058177;28;20033;-27
2023/12/10 01:11:41;;;;;;;5.50;2.60;;;;;;;13.58;66.94;96080.16;5076537;28;20024;-27
2023/12/10 01:14:07;;;;;;;4.65;2.47;;;;;;;13.64;66.85;96086.50;5084888;28;20445;-27
2023/12/10 01:16:32;;;;;;;5.00;2.53;;;;;;;13.89;66.02;96078.00;5081730;28;20043;-27
2023/12/10 01:18:57;;;;;;;5.97;2.08;;;;;;;13.80;66.48;96080.75;5090626;28;20020;-26
2023/12/10 01:21:23;;;;;;;6.03;2.30;;;;;;;13.84;66.03;96075.16;5083035;28;20031;-27
2023/12/10 01:23:50;;;;;;;5.65;2.45;;;;;;;13.80;66.49;96067.13;5083964;28;20031;-27
2023/12/10 01:26:16;;;;;;;5.97;2.33;;;;;;;13.65;67.03;96060.78;5081651;28;20028;-27
2023/12/10 01:28:42;;;;;;;3.22;1.70;;;;;;;13.72;66.21;96041.41;5083023;28;20107;-27
2023/12/10 01:31:07;;;;;;;4.88;1.90;;;;;;;13.65;67.01;96036.25;5083138;28;20031;-27
2023/12/10 01:33:33;;;;;;;5.65;2.03;;;;;;;13.82;65.81;96032.00;5083141;28;20028;-27
2023/12/10 01:35:58;;;;;;;6.68;2.08;;;;;;;13.83;66.05;96038.22;5082705;28;20032;-27
2023/12/10 01:38:24;;;;;;;5.97;2.10;;;;;;;13.81;66.31;96027.75;5083490;28;20024;-26
2023/12/10 01:40:50;;;;;;;6.47;1.70;;;;;;;13.83;66.08;96028.06;5080360;28;20062;-27
2023/12/10 01:43:18;;;;;;;4.88;1.77;;;;;;;13.88;66.33;96035.59;5078754;28;20067;-26
2023/12/10 01:45:50;;;;;;;5.15;1.90;;;;;;;13.81;66.27;96032.44;5085872;28;20136;-26
2023/12/10 01:48:20;;;;;;;3.03;1.30;;;;;;;13.79;65.94;96016.56;5079120;28;20027;-27
2023/12/10 01:50:46;;;;;;;5.55;1.55;;;;;;;13.88;65.12;96023.94;5084445;28;20087;-27
2023/12/10 01:53:12;;;;;;;5.07;1.60;;;;;;;13.71;66.52;96018.09;5080322;28;20464;-27
2023/12/10 01:55:37;;;;;;;7.38;1.98;;;;;;;13.73;65.97;96010.19;5082942;28;20040;-27
2023/12/10 01:58:06;;;;;;;5.03;1.58;;;;;;;13.67;66.33;96017.47;5086437;28;20016;-27
2023/12/10 02:00:32;;;;;;;5.88;1.75;;;;;;;13.65;66.53;96011.72;5068107;28;20085;-26
2023/12/10 02:03:05;;;;;;;4.30;1.38;;;;;;;13.63;67.09;95984.94;5082029;28;20501;-27
2023/12/10 02:05:31;;;;;;;5.07;1.58;;;;;;;13.78;65.97;95985.06;5082413;28;20404;-27
2023/12/10 02:07:57;;;;;;;5.55;1.70;;;;;;;13.77;66.17;95990.97;5083542;28;20027;-27
2023/12/10 02:10:22;;;;;;;7.70;1.73;;;;;;;13.85;66.12;95995.63;5085495;28;20020;-27
2023/12/10 02:12:48;;;;;;;5.38;1.67;;;;;;;13.78;66.28;95979.59;5084885;28;20017;-27
2023/12/10 02:15:17;;;;;;;5.85;1.55;;;;;;;13.68;66.27;95964.50;5082803;28;20023;-27
2023/12/10 02:17:45;;;;;;;7.45;1.98;;;;;;;13.81;66.11;95970.53;5081644;28;20031;-27
2023/12/10 02:20:14;;;;;;;4.63;1.45;;;;;;;13.69;66.91;95970.69;5084123;28;20020;-27
2023/12/10 02:22:48;;;;;;;7.32;2.72;;;;;;;13.67;66.74;95954.81;5086943;28;20105;-27
2023/12/10 02:25:17;;;;;;;8.07;1.55;;;;;;;13.85;66.08;95970.34;5082349;28;20085;-26
2023/12/10 02:27:43;;;;;;;4.90;1.30;;;;;;;13.88;66.17;95983.81;5062101;28;20031;-27
2023/12/10 02:30:09;;;;;;;6.50;1.58;;;;;;;13.83;65.68;95973.56;5076821;28;20428;-27
2023/12/10 02:32:35;;;;;;;7.22;1.40;;;;;;;13.80;66.10;96000.97;5085563;28;20024;-27
2023/12/10 02:35:00;;;;;;;4.50;1.60;;;;;;;13.99;65.42;96000.44;5085042;28;20365;-27
2023/12/10 02:37:25;;;;;;;7.75;1.95;;;;;;;14.05;64.73;95997.88;5082040;28;20024;-27
2023/12/10 02:39:51;;;;;;;7.80;1.98;;;;;;;14.03;64.69;95987.41;5081495;28;20499;-27
2023/12/10 02:42:16;;;;;;;9.35;2.30;;;;;;;14.03;64.11;95987.41;5081062;28;20027;-26
2023/12/10 02:44:42;;;;;;;7.38;3.00;;;;;;;13.96;64.73;95984.28;5081898;28;20024;-28
2023/12/10 02:47:07;;;;;;;6.60;2.28;;;;;;;13.93;64.65;95980.47;5081185;28;20355;-27
2023/12/10 02:49:33;;;;;;;9.10;3.60;;;;;;;14.04;64.46;95971.81;5081760;28;20056;-27
2023/12/10 02:51:58;;;;;;;7.38;3.30;;;;;;;13.85;64.80;95970.34;5085112;28;20061;-27
2023/12/10 02:54:24;;;;;;;7.75;3.92;;;;;;;13.91;64.91;95977.47;5084572;28;20491;-27
2023/12/10 02:56:49;;;;;;;8.93;4.80;;;;;;;13.91;64.49;95960.34;5081249;28;20044;-27
2023/12/10 02:59:15;;;;;;;11.48;5.72;;;;;;;13.86;64.34;95961.72;5079230;28;20020;-27
2023/12/10 03:01:40;;;;;;;8.63;5.65;;;;;;;13.94;64.09;95964.88;5076138;28;20493;-27
2023/12/10 03:04:06;;;;;;;8.90;6.35;;;;;;;13.88;64.40;95961.25;5088956;28;20016;-27
2023/12/10 03:06:31;;;;;;;10.45;5.82;;;;;;;13.93;64.18;95964.13;5080922;28;20474;-27
2023/12/10 03:08:56;;;;;;;10.10;5.88;;;;;;;13.81;64.27;95970.53;5082223;28;20063;-27
2023/12/10 03:11:22;;;;;;;9.48;5.47;;;;;;;13.87;64.85;95970.66;5079744;28;20048;-26
2023/12/10 03:13:47;;;;;;;8.25;4.78;;;;;;;13.92;64.64;95962.63;5088232;28;20031;-27
2023/12/10 03:16:13;;;;;;;8.23;4.95;;;;;;;13.96;64.08;95952.31;5080874;28;21004;-27
2023/12/10 03:18:38;;;;;;;11.35;5.53;;;;;;;14.13;63.27;95965.56;5079844;28;20027;-27
2023/12/10 03:21:04;;;;;;;11.30;5.05;;;;;;;14.12;63.66;95964.03;5075940;28;20099;-27
2023/12/10 03:23:29;;;;;;;13.10;5.57;;;;;;;14.01;63.90;95956.38;5062103;28;20016;-27
2023/12/10 03:25:55;;;;;;;10.65;6.20;;;;;;;14.00;64.05;95947.44;5080269;28;20031;-27
2023/12/10 03:28:20;;;;;;;10.07;6.43;;;;;;;14.05;63.87;95945.31;5083100;28;20473;-29
2023/12/10 03:30:46;;;;;;;9.05;5.70;;;;;;;13.96;64.21;95940.66;5079201;28;20592;-27
2023/12/10 03:33:11;;;;;;;10.23;6.28;;;;;;;13.92;64.59;95937.31;5081199;28;20020;-27
2023/12/10 03:35:37;;;;;;;9.13;5.35;;;;;;;14.01;64.48;95940.00;5080537;28;20454;-27
2023/12/10 03:38:02;;;;;;;9.40;4.60;;;;;;;13.93;64.99;95942.31;5080132;28;20043;-28
2023/12/10 03:40:28;;;;;;;11.75;6.00;;;;;;;14.09;63.84;95937.72;5081098;28;20024;-27
2023/12/10 03:42:53;;;;;;;7.78;4.75;;;;;;;13.89;64.92;95939.00;5080232;28;20017;-27
2023/12/10 03:45:18;;;;;;;8.48;4.57;;;;;;;14.13;63.97;95938.28;5080131;28;20469;-27
2023/12/10 03:47:46;;;;;;;7.68;4.18;;;;;;;14.10;63.92;95931.03;5080955;28;20012;-26
2023/12/10 03:50:16;;;;;;;17.85;4.20;;;;;;;13.96;64.55;95907.94;5080113;28;20044;-29
2023/12/10 03:52:41;;;;;;;11.80;4.68;;;;;;;14.01;64.73;95910.03;5080696;28;20028;-27
2023/12/10 03:55:08;;;;;;;7.85;3.72;;;;;;;14.06;64.39;95903.19;5080681;28;20012;-27
2023/12/10 03:57:34;;;;;;;6.07;4.20;;;;;;;13.97;64.85;95909.44;5080482;28;20027;-26
2023/12/10 04:00:00;;;;;;;7.93;4.30;;;;;;;14.02;64.52;95920.47;5080250;28;20012;-27
2023/12/10 04:02:25;;;;;;;11.27;4.63;;;;;;;14.06;64.78;95919.56;5080236;28;20529;-27
2023/12/10 04:04:51;;;;;;;8.77;4.43;;;;;;;13.90;65.41;95921.44;5079910;28;20117;-28
2023/12/10 04:07:17;;;;;;;10.82;5.35;;;;;;;13.99;64.88;95918.66;5080683;28;20377;-27
2023/12/10 04:09:42;;;;;;;8.25;4.25;;;;;;;14.06;65.05;95916.81;5073370;28;20048;-27
2023/12/10 04:12:08;;;;;;;10.52;4.20;;;;;;;13.96;64.93;95916.13;5087473;28;20462;-27
2023/12/10 04:14:33;;;;;;;9.30;4.68;;;;;;;13.94;65.38;95913.84;5078472;28;20028;-27
2023/12/10 04:16:59;;;;;;;9.27;4.18;;;;;;;13.87;65.53;95905.22;5075239;28;20020;-27
2023/12/10 04:19:24;;;;;;;9.88;4.32;;;;;;;13.95;65.37;95904.44;5079660;28;20031;-27
2023/12/10 04:21:50;;;;;;;9.00;4.35;;;;;;;14.13;64.91;95917.22;5080340;28;20156;-26
2023/12/10 04:24:15;;;;;;;8.50;3.70;;;;;;;14.03;64.47;95923.94;5072802;28;20020;-26
2023/12/10 04:26:41;;;;;;;9.60;3.80;;;;;;;14.10;64.15;95931.78;5078168;28;20063;-27
2023/12/10 04:29:07;;;;;;;9.07;4.32;;;;;;;14.00;65.04;95920.16;5056820;28;20067;-27
2023/12/10 04:31:32;;;;;;;9.30;4.18;;;;;;;14.13;64.69;95916.47;5080129;28;20487;-27
2023/12/10 04:33:57;;;;;;;10.40;4.10;;;;;;;14.00;65.07;95920.16;5079330;28;20024;-27
2023/12/10 04:36:23;;;;;;;11.90;4.25;;;;;;;14.12;64.85;95923.16;5074478;28;20016;-26
2023/12/10 04:38:49;;;;;;;7.78;3.53;;;;;;;14.01;65.40;95921.69;5061336;28;20029;-27
2023/12/10 04:41:14;;;;;;;7.28;3.63;;;;;;;14.05;65.61;95915.31;5079781;28;20082;-27
2023/12/10 04:43:39;;;;;;;10.65;3.65;;;;;;;14.07;65.40;95916.38;5080638;28;20028;-27
2023/12/10 04:46:05;;;;;;;10.77;3.20;;;;;;;14.02;65.24;95925.16;5079905;28;20023;-27
2023/12/10 04:48:31;;;;;;;12.85;3.55;;;;;;;13.91;65.66;95917.47;5080266;28;20025;-27
2023/12/10 04:50:56;;;;;;;9.55;3.80;;;;;;;13.95;66.13;95909.16;5079994;28;20124;-27
2023/12/10 04:53:22;;;;;;;13.48;4.78;;;;;;;14.03;65.88;95913.81;5072424;28;20527;-27
2023/12/10 04:55:47;;;;;;;13.65;3.58;;;;;;;14.12;65.32;95917.69;5082032;28;20430;-27
2023/12/10 04:58:13;;;;;;;14.35;4.47;;;;;;;13.88;66.39;95926.56;5078453;28;20028;-27
2023/12/10 05:00:38;;;;;;;11.82;3.72;;;;;;;13.85;66.25;95924.75;5080421;28;20023;-27
2023/12/10 05:03:04;;;;;;;10.32;3.85;;;;;;;13.89;66.89;95930.06;5083688;28;20074;-27
2023/12/10 05:05:29;;;;;;;10.48;3.45;;;;;;;14.08;66.56;95930.75;5083844;28;20021;-27
2023/12/10 05:07:55;;;;;;;10.20;3.67;;;;;;;14.10;65.79;95933.75;5083511;28;20099;-27
2023/12/10 05:10:21;;;;;;;10.35;4.28;;;;;;;14.15;66.09;95941.31;5083703;28;20431;-27
2023/12/10 05:12:47;;;;;;;8.43;4.35;;;;;;;14.16;65.54;95951.00;5083447;28;20031;-27
2023/12/10 05:15:14;;;;;;;7.13;3.05;;;;;;;14.18;65.21;95952.06;5086368;28;20020;-27
2023/12/10 05:17:39;;;;;;;10.80;3.90;;;;;;;14.13;65.48;95949.97;5087852;28;20020;-27
2023/12/10 05:20:07;;;;;;;7.50;3.05;;;;;;;14.00;66.89;95944.69;5083991;28;20040;-27
2023/12/10 05:22:33;;;;;;;8.43;3.15;;;;;;;13.95;67.78;95950.03;5089429;28;20492;-27
2023/12/10 05:24:58;;;;;;;8.75;2.45;;;;;;;13.97;67.44;95953.78;5083047;28;20032;-28
2023/12/10 05:27:24;;;;;;;7.80;2.60;;;;;;;14.10;66.72;95939.22;5090737;28;20020;-27
2023/12/10 05:29:50;;;;;;;6.95;1.90;;;;;;;14.06;67.31;95944.09;5075471;28;20027;-27
2023/12/10 05:32:15;;;;;;;5.18;2.20;;;;;;;13.97;67.54;95942.88;5076458;28;20028;-27
2023/12/10 05:34:41;;;;;;;6.50;1.95;;;;;;;14.08;67.53;95947.88;5064145;28;20055;-27
2023/12/10 05:37:06;;;;;;;4.15;1.90;;;;;;;13.96;68.57;95944.13;5082908;28;20115;-26
2023/12/10 05:39:31;;;;;;;6.78;1.70;;;;;;;14.03;68.07;95951.97;5083197;28;20027;-27
2023/12/10 05:41:57;;;;;;;6.05;1.70;;;;;;;14.03;68.12;95943.78;5080884;28;20529;-27
2023/12/10 05:44:22;;;;;;;5.80;1.88;;;;;;;14.01;68.38;95945.47;5077703;28;20024;-27
2023/12/10 05:46:48;;;;;;;4.68;1.50;;;;;;;13.99;68.75;95956.81;5083390;28;20032;-27
2023/12/10 05:49:13;;;;;;;7.38;1.58;;;;;;;13.98;67.81;95963.50;5063919;28;20469;-27
2023/12/10 05:51:39;;;;;;;5.43;2.13;;;;;;;14.15;67.74;95974.03;5065616;28;20127;-27
2023/12/10 05:54:04;;;;;;;7.78;1.63;;;;;;;14.07;68.20;95990.00;5075234;28;20074;-27
2023/12/10 05:56:30;;;;;;;5.35;1.30;;;;;;;13.95;67.83;95993.66;5082677;28;20008;-26
2023/12/10 05:58:55;;;;;;;6.18;1.70;;;;;;;14.06;67.75;96004.06;5059657;28;20382;-27
2023/12/10 06:01:21;;;;;;;6.65;1.50;;;;;;;14.02;67.68;96007.72;5086029;28;20077;-27
2023/12/10 06:03:46;;;;;;;5.75;1.17;;;;;;;13.95;67.72;96016.22;5077422;28;20474;-27
2023/12/10 06:06:12;;;;;;;3.70;1.17;;;;;;;14.13;66.91;96014.66;5081374;28;20023;-27
2023/12/10 06:08:37;;;;;;;5.18;1.10;;;;;;;14.02;67.86;95998.78;5089512;28;20461;-27
2023/12/10 06:11:03;;;;;;;2.65;0.80;;;;;;;13.99;67.44;95996.97;5074956;28;20161;-27
2023/12/10 06:13:29;;;;;;;6.88;1.10;;;;;;;13.91;67.33;95999.25;5081897;28;20043;-27
2023/12/10 06:15:56;;;;;;;4.63;1.00;;;;;;;13.92;67.49;96008.19;5082062;28;20377;-27
2023/12/10 06:18:21;;;;;;;4.35;1.02;;;;;;;13.88;67.18;96008.34;5085513;28;20476;-27
2023/12/10 06:20:47;;;;;;;5.65;1.15;;;;;;;14.16;66.70;96014.50;5085768;28;20115;-27
2023/12/10 06:23:12;;;;;;;4.50;1.10;;;;;;;14.15;66.26;96012.22;5083843;28;20028;-27
2023/12/10 06:25:38;;;;;;;4.55;1.20;;;;;;;14.01;67.00;95998.03;5085224;28;20051;-27
2023/12/10 06:28:04;;;;;;;3.15;0.80;;;;;;;14.14;66.47;95995.09;5084120;28;20024;-27
2023/12/10 06:30:29;;;;;;;4.85;0.82;;;;;;;13.95;66.92;96010.00;5081798;28;20024;-27
2023/12/10 06:32:55;;;;;;;2.53;0.85;;;;;;;13.96;66.92;96004.09;5081978;28;20441;-27
2023/12/10 06:35:21;;;;;;;2.28;0.70;;;;;;;13.69;67.20;95976.91;5089089;28;20031;-27
2023/12/10 06:37:46;;;;;;;3.75;0.70;;;;;;;13.98;66.79;95976.38;5078870;28;20020;-27
2023/12/10 06:40:12;;;;;;;4.53;0.90;;;;;;;13.98;66.52;95977.13;5084839;28;21045;-27
2023/12/10 06:42:38;;;;;;;3.15;1.13;;;;;;;14.09;66.21;95975.91;5081600;28;20020;-27
2023/12/10 06:45:05;;;;;;;1.83;0.57;;;;;;;13.97;66.45;95972.16;5081203;28;20074;-27
2023/12/10 06:47:30;;;;;;;2.72;1.60;;;;;;;14.06;66.31;95983.03;5081691;28;20020;-27
2023/12/10 06:49:56;;;;;;;5.88;1.17;;;;;;;13.97;66.53;95981.06;5056594;28;20098;-27
2023/12/10 06:52:21;;;;;;;4.18;0.93;;;;;;;13.86;67.04;95983.50;5081287;28;20020;-27
2023/12/10 06:54:47;;;;;;;3.60;1.00;;;;;;;14.00;66.52;95976.66;5081219;28;20026;-27
2023/12/10 06:57:12;;;;;;;5.03;1.00;;;;;;;13.89;66.74;95966.25;5081254;28;20019;-27
2023/12/10 06:59:38;;;;;;;3.15;0.93;;;;;;;13.98;66.73;95982.56;5081823;28;20031;-27
2023/12/10 07:02:03;;;;;;;3.97;1.00;;;;;;;14.01;66.71;95995.28;5081678;28;20017;-27
2023/12/10 07:04:29;;;;;;;5.88;1.38;;;;;;;14.00;66.82;95993.78;5080519;28;20047;-26
2023/12/10 07:06:54;;;;;;;4.70;1.40;;;;;;;14.02;66.93;96001.50;5076187;28;20031;-27
2023/12/10 07:09:22;;;;;;;3.80;0.93;;;;;;;14.08;66.48;95990.75;5086901;28;20028;-27
2023/12/10 07:11:48;;;;;;;9.63;2.03;;;;;;;14.15;65.94;96009.50;5063283;28;20465;-27
2023/12/10 07:14:14;;;;;;;3.00;1.13;;;;;;;13.98;66.88;96026.19;5084373;28;20030;-27
2023/12/10 07:16:39;;;;;;;7.53;1.08;;;;;;;14.00;66.64;96040.13;5078028;28;20008;-27
2023/12/10 07:19:05;;;;;;;6.22;1.33;;;;;;;14.16;66.13;96052.66;5082572;28;20051;-27
2023/12/10 07:21:30;;;;;;;9.00;1.45;;;;;;;13.93;66.89;96066.97;5080383;28;20024;-27
2023/12/10 07:23:55;;;;;;;5.35;1.30;;;;;;;14.14;66.77;96060.56;5088201;28;20081;-27
2023/12/10 07:26:22;;;;;;;3.55;1.60;;;;;;;14.16;66.46;96062.81;5080491;28;20024;-27
2023/12/10 07:28:48;;;;;;;7.82;2.67;;;;;;;14.08;66.43;96056.19;5080800;28;20025;-27
2023/12/10 07:31:13;;;;;;;7.93;2.05;;;;;;;13.91;68.02;96064.69;5081140;28;20097;-27
2023/12/10 07:33:39;;;;;;;6.32;1.83;;;;;;;13.92;67.43;96052.56;5080082;28;20028;-27
2023/12/10 07:36:05;;;;;;;9.93;2.00;;;;;;;14.09;66.67;96046.78;5080954;28;20074;-27
2023/12/10 07:38:30;;;;;;;4.57;1.50;;;;;;;14.01;66.61;96044.38;5076037;28;20547;-27
2023/12/10 07:40:55;;;;;;;6.00;1.70;;;;;;;14.19;66.27;96037.38;5083867;28;20031;-28
2023/12/10 07:43:21;;;;;;;6.97;1.90;;;;;;;14.25;65.80;96041.72;5082454;28;20488;-27
2023/12/10 07:45:46;;;;;;;8.30;1.88;;;;;;;14.12;66.85;96045.84;5080286;28;20028;-27
2023/12/10 07:48:12;;;;;;;7.55;1.80;;;;;;;14.01;67.38;96068.91;5080459;28;20023;-27
2023/12/10 07:50:38;;;;;;;4.60;1.20;;;;;;;14.08;67.22;96069.81;5080850;28;20055;-27
2023/12/10 07:53:03;;;;;;;8.27;1.55;;;;;;;14.11;66.84;96075.09;5084923;28;20023;-27
2023/12/10 07:55:29;;;;;;;9.68;1.73;;;;;;;14.19;66.51;96073.59;5083347;28;20020;-28
2023/12/10 07:57:55;;;;;;;6.35;1.52;;;;;;;14.13;66.62;96085.53;5082544;28;20017;-27
2023/12/10 08:00:20;;;;;;;8.63;1.60;;;;;;;14.24;65.92;96088.56;5083496;28;20024;-28
2023/12/10 08:02:46;;;;;;;4.75;1.65;;;;;;;14.01;67.16;96098.91;5082219;28;20039;-27
2023/12/10 08:05:12;;;;;;;7.60;2.00;;;;;;;14.22;66.43;96099.16;5083643;28;20117;-27
2023/12/10 08:07:37;;;;;;;6.05;1.48;;;;;;;14.16;66.58;96101.00;5076530;28;20023;-27
2023/12/10 08:10:05;;;;;;;8.13;1.50;;;;;;;14.02;67.25;96096.94;5080876;28;20031;-27
2023/12/10 08:12:30;;;;;;;7.28;1.60;;;;;;;14.25;66.13;96100.97;5078275;28;20097;-27
2023/12/10 08:14:56;;;;;;;5.60;1.75;;;;;;;14.16;66.98;96106.47;5082331;28;20083;-28
2023/12/10 08:17:22;;;;;;;8.70;1.80;;;;;;;14.09;67.47;96112.25;5083329;28;20020;-27
2023/12/10 08:19:47;;;;;;;10.60;2.65;;;;;;;14.15;66.91;96104.94;5065942;28;20365;-27
2023/12/10 08:22:13;;;;;;;6.60;1.52;;;;;;;14.23;66.66;96117.03;5074526;28;20481;-27
2023/12/10 08:24:39;;;;;;;8.18;1.60;;;;;;;14.15;66.88;96115.84;5083548;28;20107;-27
2023/12/10 08:27:05;;;;;;;9.15;1.70;;;;;;;14.17;66.28;96125.09;5075200;28;20052;-26
2023/12/10 08:29:30;;;;;;;9.68;1.95;;;;;;;14.08;67.31;96127.09;5080032;28;20527;-27
2023/12/10 08:31:56;;;;;;;8.05;1.90;;;;;;;14.02;67.36;96127.69;5086607;28;20090;-27
2023/12/10 08:34:21;;;;;;;9.27;2.42;;;;;;;14.00;67.07;96124.66;5073266;28;20457;-27
2023/12/10 08:36:47;;;;;;;7.68;1.52;;;;;;;14.10;67.05;96136.28;5082604;28;20021;-27
2023/12/10 08:39:13;;;;;;;6.50;1.75;;;;;;;14.06;67.40;96134.94;5084070;28;20440;-28
2023/12/10 08:41:39;;;;;;;7.20;1.52;;;;;;;14.26;66.74;96137.94;5086458;28;20024;-27
2023/12/10 08:44:04;;;;;;;7.03;1.50;;;;;;;14.19;66.57;96149.94;5087304;28;20016;-27
2023/12/10 08:46:30;;;;;;;6.93;1.90;;;;;;;14.14;67.54;96152.50;5084844;28;20419;-27
2023/12/10 08:48:55;;;;;;;11.55;1.73;;;;;;;14.24;66.76;96162.94;5080529;28;20449;-27
2023/12/10 08:51:21;;;;;;;7.97;1.75;;;;;;;14.38;66.19;96164.31;5086469;28;20036;-27
2023/12/10 08:53:46;;;;;;;6.65;1.83;;;;;;;14.78;64.24;96182.44;5078372;28;20016;-27
2023/12/10 08:56:12;;;;;;;10.43;2.00;;;;;;;15.87;61.82;96181.91;5081843;28;20019;-27
2023/12/10 08:58:37;;;;;;;10.55;1.65;;;;;;;20.72;46.56;96189.25;5084184;28;20029;-27
2023/12/10 09:01:05;;;;;;;7.03;1.73;;;;;;;22.86;41.08;96197.25;5083819;28;20073;-27
2023/12/10 09:03:31;;;;;;;7.78;1.40;;;;;;;24.07;38.27;96188.31;5090554;28;20050;-27
2023/12/10 09:05:58;;;;;;;6.85;1.60;;;;;;;24.86;35.88;96205.41;5083734;28;20032;-28
2023/12/10 09:08:26;;;;;;;7.95;1.42;;;;;;;26.31;33.46;96213.31;5088916;28;20427;-27
2023/12/10 09:10:55;;;;;;;7.30;1.27;;;;;;;26.25;33.12;96207.81;5086004;28;20339;-28
2023/12/10 09:13:20;;;;;;;6.97;1.63;;;;;;;26.02;33.66;96204.75;5076564;28;20025;-27
2023/12/10 09:15:46;;;;;;;6.88;1.60;;;;;;;26.62;32.71;96217.94;5083898;28;20043;-28
2023/12/10 09:18:11;;;;;;;7.63;1.55;;;;;;;27.33;30.94;96202.91;5083586;28;20032;-27
2023/12/10 09:20:37;;;;;;;4.88;1.27;;;;;;;26.92;31.93;96214.00;5083256;28;20040;-27
2023/12/10 09:23:02;;;;;;;7.53;2.05;;;;;;;27.64;30.18;96220.63;5075929;28;20036;-27
2023/12/10 09:25:28;;;;;;;7.18;1.52;;;;;;;28.30;29.15;96222.19;5082764;28;20044;-27
2023/12/10 09:27:53;;;;;;;5.18;1.45;;;;;;;28.34;28.74;96236.53;5064318;28;20032;-28
2023/12/10 09:30:19;;;;;;;9.57;2.05;;;;;;;28.76;28.08;96234.28;5077868;28;20060;-27
2023/12/10 09:32:44;;;;;;;10.90;1.92;;;;;;;29.12;27.22;96228.63;5063918;28;20031;-28
2023/12/10 09:35:10;;;;;;;8.68;1.98;;;;;;;29.31;27.25;96237.41;5090347;28;20050;-27
2023/12/10 09:37:37;;;;;;;6.03;2.03;;;;;;;25.32;33.12;96228.44;5077989;28;20449;-27
2023/12/10 09:40:04;;;;;;;4.75;2.00;;;;;;;20.58;43.01;96234.28;5093785;28;20111;-27
2023/12/10 09:42:29;;;;;;;7.28;2.20;;;;;;;18.83;48.14;96241.19;5077189;28;20024;-28
2023/12/10 09:44:55;;;;;;;10.05;2.50;;;;;;;18.12;50.34;96234.41;5081812;28;20027;-27
2023/12/10 09:47:23;;;;;;;7.55;2.47;;;;;;;17.78;51.69;96235.97;5081172;28;20413;-27
2023/12/10 09:49:53;;;;;;;5.35;1.63;;;;;;;17.23;53.05;96242.09;5085199;28;20048;-28
2023/12/10 09:52:19;;;;;;;5.57;2.20;;;;;;;16.96;54.37;96239.66;5086019;28;20132;-27
2023/12/10 09:54:44;;;;;;;7.00;1.98;;;;;;;16.94;54.38;96242.16;5082710;28;20060;-27
2023/12/10 09:57:11;;;;;;;6.13;2.00;;;;;;;16.81;54.92;96234.94;5082547;28;20035;-27
2023/12/10 09:59:37;;;;;;;9.70;2.17;;;;;;;16.50;56.23;96243.59;5082893;28;20020;-27
2023/12/10 10:02:07;;;;;;;7.93;2.10;;;;;;;16.50;56.71;96242.81;5078542;28;20065;-27
2023/12/10 10:04:33;;;;;;;9.57;2.30;;;;;;;16.33;56.94;96247.97;5086367;28;20044;-27
2023/12/10 10:06:58;;;;;;;6.68;2.10;;;;;;;16.11;57.49;96245.56;5065877;28;20058;-28
2023/12/10 10:09:23;;;;;;;8.70;2.15;;;;;;;16.11;58.57;96251.03;5085701;28;20039;-28
2023/12/10 10:11:50;;;;;;;8.50;1.80;;;;;;;15.97;58.20;96254.47;5077436;28;20393;-28
2023/12/10 10:14:17;;;;;;;6.45;2.10;;;;;;;15.72;59.01;96252.19;5074645;28;20512;-27
2023/12/10 10:16:49;;;;;;;9.15;2.20;;;;;;;15.88;58.95;96261.97;5056870;28;20108;-27
2023/12/10 10:19:15;;;;;;;8.07;2.28;;;;;;;15.76;59.06;96259.00;5077510;28;20031;-28
2023/12/10 10:21:44;;;;;;;9.52;1.80;;;;;;;15.81;59.07;96263.09;5085994;28;20445;-27
2023/12/10 10:24:10;;;;;;;8.13;1.80;;;;;;;15.70;59.37;96266.31;5083354;28;20110;-27
2023/12/10 10:26:36;;;;;;;7.65;1.75;;;;;;;15.59;59.65;96260.59;5086626;28;20028;-29
2023/12/10 10:29:04;;;;;;;7.95;1.63;;;;;;;15.60;59.93;96266.81;5077111;28;20437;-27
2023/12/10 10:31:29;;;;;;;4.82;1.63;;;;;;;15.56;59.91;96260.78;5074151;28;20443;-27
2023/12/10 10:34:01;;;;;;;6.10;1.60;;;;;;;15.61;59.96;96265.59;5079874;28;20021;-27
2023/12/10 10:36:26;;;;;;;6.63;1.83;;;;;;;15.34;61.06;96278.13;5083711;28;20393;-27
2023/12/10 10:38:52;;;;;;;7.03;1.48;;;;;;;15.46;60.49;96270.94;5067414;28;20035;-28
2023/12/10 10:41:18;;;;;;;5.47;1.70;;;;;;;15.49;60.20;96272.78;5084288;28;20032;-27
2023/12/10 10:43:44;;;;;;;12.23;1.90;;;;;;;15.29;61.43;96269.81;5081675;28;20025;-28
2023/12/10 10:46:10;;;;;;;7.38;1.67;;;;;;;15.45;60.45;96266.72;5081506;28;20065;-27
2023/12/10 10:48:38;;;;;;;6.85;2.00;;;;;;;15.37;60.88;96265.53;5075719;28;20033;-27
2023/12/10 10:51:05;;;;;;;9.93;2.05;;;;;;;15.32;61.20;96269.66;5085018;28;20488;-27
2023/12/10 10:53:33;;;;;;;7.43;2.20;;;;;;;15.35;61.02;96273.44;5075920;28;20448;-27
2023/12/10 10:55:59;;;;;;;8.23;1.70;;;;;;;15.24;61.03;96273.94;5081564;28;20016;-27
2023/12/10 10:58:29;;;;;;;7.00;1.60;;;;;;;15.23;61.42;96271.66;5087867;28;20027;-28
2023/12/10 11:00:58;;;;;;;9.32;2.13;;;;;;;15.54;60.21;96274.13;5075916;28;20016;-27
2023/12/10 11:03:28;;;;;;;6.72;2.00;;;;;;;15.25;61.32;96285.59;5079171;28;20036;-27
2023/12/10 11:06:01;;;;;;;6.65;1.70;;;;;;;15.20;61.44;96267.13;5082522;28;20553;-28
2023/12/10 11:08:28;;;;;;;6.18;1.75;;;;;;;15.41;60.10;96277.06;5078925;28;20093;-27
2023/12/10 11:11:00;;;;;;;4.28;1.63;;;;;;;15.26;60.35;96276.19;5080577;28;20114;-29
2023/12/10 11:13:58;;;;;;;6.82;1.67;;;;;;;15.18;59.58;96286.72;5086199;28;20026;-27
2023/12/10 11:16:24;;;;;;;7.28;2.42;;;;;;;15.19;59.78;96287.47;5025292;28;20035;-27
2023/12/10 11:18:56;;;;;;;8.45;2.95;;;;;;;15.31;58.26;96281.81;5081260;28;20474;-27
2023/12/10 11:21:22;;;;;;;5.28;1.90;;;;;;;15.37;58.20;96279.19;5080856;28;20389;-27
2023/12/10 11:23:47;;;;;;;5.68;1.75;;;;;;;15.30;58.09;96285.00;5056113;28;20019;-27
2023/12/10 11:26:13;;;;;;;6.75;1.85;;;;;;;15.27;57.46;96278.47;5080962;28;20039;-27